Last 30 Days

Chimney Rock Rd (SLO-16)

Daily Data | America/Los_Angeles
as of 4/14/21 1:38 AM PDT
Date Daily Max Temp (°F) Time of Max Temp Daily Min Temp (°F) Time of Min Temp Daily Rain (In) Monthly Rain (In) Seasonal Rainfall (In) Wind Spd (mph) Daily Max Wind (mph) Time of Max Wind Daily ETo (in) 7 Day ETo (in) Daily Solar Rad (Cal/cm2) Dew Pt (°F) Max RH (%) Min RH (%) Hrs 70-85F (hrs) Hrs > 95F (hrs) Powdery Mildew Stress (pts) GDDs (DL) GDDs (Mx/Mn) Seas GDDs (DL) Seas GDDs (Smpl) Max Inversion (°F) Max Inversion Time Min Inversion (°F) Min Inversion Time Max 1 Min Rain (In) Max 1 Min Rain Time Max 15 Min Rain (In) Max 15 Min Precip Time Max 60 Min Rain (In) Max 60 Min Rain Time Hrs <= 32F (hrs) Hrs <= 28F (hrs) Chilling <=45F (hrs) Chilling <=45F Seas (hrs) Bat Volt Min Day (V)
4/13/21 59.8 1343 35.6 0505 0.00 0.00 13.38 2.7 16.2 1436 0.129 1.14 560 40.6 99 45 0.00 0.00 40 2.1 0.0 100 74 4.0 0039 -5.4 1436 - - - - - - 0.0 0.0 12.8 - 12.2
4/12/21 78.4 1550 36.7 0636 0.00 0.00 13.38 1.7 12.5 1443 0.186 1.17 614 40.3 96 18 6.66 0.00 20 9.2 7.5 98 74 4.8 0105 -5.1 1508 - - - - - - 0.0 0.0 9.1 - 12.2
4/11/21 78.4 1617 38.0 0621 0.00 0.00 13.38 1.4 8.1 1600 0.152 1.13 518 39.5 96 22 6.39 0.00 0 9.2 8.2 89 66 5.7 2305 -4.8 1246 - - - - - - 0.0 0.0 7.1 - 12.3
4/10/21 74.9 1703 31.6 0646 0.00 0.00 13.38 2.2 12.1 1412 0.163 1.13 603 39.1 99 26 3.72 0.00 0 7.3 3.3 80 58 6.7 2208 -4.2 1308 - - - - - - 0.2 0.0 8.3 - 12.2
4/9/21 75.4 1652 35.4 0654 0.00 0.00 13.38 2.2 10.8 1553 0.175 1.12 601 37.6 93 22 4.97 0.00 0 8.1 5.4 72 55 7.9 0822 -3.4 1401 - - - - - - 0.0 0.0 9.4 - 12.3
4/8/21 73.4 1603 34.6 0655 0.00 0.00 13.38 2.3 11.5 1539 0.170 1.14 606 38.5 98 26 3.84 0.00 10 7.2 4.0 64 50 4.8 2245 -4.5 1139 - - - - - - 0.0 0.0 8.6 - 12.2
4/7/21 77.1 1446 36.4 0652 0.00 0.00 13.38 1.8 10.8 1512 0.169 1.17 570 38.8 98 21 5.88 0.00 20 8.3 6.8 57 46 6.1 2358 -5.6 1446 - - - - - - 0.0 0.0 7.7 - 12.2
4/6/21 76.1 1736 38.5 0221 0.00 0.00 13.38 1.6 9.5 1241 0.156 1.20 564 42.4 99 19 4.74 0.00 30 7.6 7.3 49 39 4.4 1931 -5.2 1251 - - - - - - 0.0 0.0 8.7 - 12.3
4/5/21 72.7 1629 35.4 0548 0.00 0.00 13.38 1.4 10.8 1339 0.148 1.22 560 40.6 99 28 2.65 0.00 40 5.9 4.0 41 32 2.7 1625 -4.5 1133 - - - - - - 0.0 0.0 11.2 - 12.3
4/4/21 78.2 1717 34.0 0634 0.00 0.00 13.38 1.7 9.5 1116 0.153 1.24 567 41.8 99 25 4.85 0.00 50 7.7 6.1 35 27 5.4 0753 -4.2 1454 - - - - - - 0.0 0.0 8.2 - 12.3
4/3/21 69.6 1424 32.6 0654 0.00 0.00 13.38 2.0 12.8 1503 0.147 1.27 545 38.1 99 29 0.00 0.00 60 4.5 1.1 27 21 5.2 0107 -6.1 1438 - - - - - - 0.0 0.0 13.5 - 12.2
4/2/21 79.7 1539 38.3 0644 0.00 0.00 13.38 2.4 13.2 1423 0.197 1.29 604 32.6 88 12 7.69 0.00 0 10.6 9.0 23 20 12.1 0757 -6.0 0832 - - - - - - 0.0 0.0 8.6 - 12.2
4/1/21 83.2 1428 39.5 0650 0.00 0.00 13.38 2.9 13.5 1614 0.202 1.23 585 31.3 82 8 8.69 0.00 0 12.3 11.4 12 11 8.3 0749 -4.2 1314 - - - - - - 0.0 0.0 6.0 - 12.2
3/31/21 80.7 1436 40.0 0709 0.00 0.87 13.38 2.7 16.2 1321 0.198 1.14 592 31.1 79 9 8.27 0.00 0 11.6 10.3 - - 7.6 0830 -4.2 1438 - - - - - - 0.0 0.0 6.1 1,691 12.2
3/30/21 76.0 1658 36.3 0709 0.00 0.87 13.38 2.1 12.5 1642 0.173 1.10 584 34.7 93 19 5.54 0.00 0 9.2 6.1 - - 8.9 2040 -4.0 1355 - - - - - - 0.0 0.0 7.1 1,685 12.2
3/29/21 77.3 1524 39.0 0639 0.00 0.87 13.38 1.9 10.8 1247 0.173 1.07 583 37.2 86 18 5.72 0.00 0 9.2 8.2 - - 10.2 0826 -4.5 1451 - - - - - - 0.0 0.0 8.6 1,677 12.2
3/28/21 80.5 1534 37.7 0613 0.00 0.87 13.38 2.1 12.8 1737 0.181 1.03 577 37.2 86 16 7.13 0.00 0 10.5 9.1 - - 6.6 0551 -4.4 1604 - - - - - - 0.0 0.0 7.0 1,669 12.3
3/27/21 75.4 1556 35.7 0609 0.00 0.87 13.38 1.6 12.1 1522 0.165 0.98 574 36.7 94 20 5.06 0.00 0 8.4 5.6 - - 7.3 0247 -4.3 1339 - - - - - - 0.0 0.0 7.3 1,662 12.2
3/26/21 66.4 1606 31.6 0622 0.00 0.87 13.38 1.5 11.8 1517 0.137 0.94 559 36.6 99 28 0.00 0.00 0 4.1 0.0 - - 6.7 2125 -4.4 1312 - - - - - - 0.4 0.0 11.1 1,655 12.3
3/25/21 59.1 1550 33.0 0550 0.00 0.87 13.38 2.2 14.8 1323 0.114 0.86 482 37.0 98 44 0.00 0.00 0 2.2 0.0 - - 3.3 0743 -5.7 1432 - - - - - - 0.0 0.0 12.8 1,643 12.3
3/24/21 67.6 1603 33.6 0532 0.00 0.87 13.38 2.3 12.5 1631 0.153 0.84 548 27.0 77 16 0.00 0.00 0 4.9 0.6 - - 8.2 0256 -4.5 1420 - - - - - - 0.0 0.0 9.3 1,631 12.2
3/23/21 62.8 1554 36.2 0322 0.00 0.87 13.38 3.5 17.2 1748 0.146 0.79 560 33.6 98 28 0.00 0.00 0 3.8 0.0 - - 3.7 0508 -4.4 1204 - - - - - - 0.0 0.0 7.6 1,621 12.3
3/22/21 67.4 1557 31.5 0655 0.00 0.87 13.38 2.0 12.5 1658 0.132 0.76 534 37.8 99 32 0.00 0.00 0 3.6 0.0 - - 3.5 2203 -3.5 1429 - - - - - - 0.4 0.0 11.4 1,614 12.3
3/21/21 62.6 1608 31.1 0705 0.00 0.87 13.38 2.3 13.8 1340 0.135 0.71 549 34.9 98 23 0.00 0.00 0 3.0 0.0 - - 6.0 0816 -3.8 1220 - - - - - - 1.2 0.0 11.8 1,602 12.3
3/20/21 58.2 1537 32.6 0622 0.00 0.87 13.38 2.1 13.5 1328 0.121 0.65 536 36.5 99 38 0.00 0.00 0 1.6 0.0 - - 9.0 0834 -3.8 1254 - - - - - - 0.0 0.0 11.7 1,591 12.2
3/19/21 62.9 1223 43.7 0059 0.16 0.87 13.38 1.5 13.5 1316 0.057 0.64 217 49.3 98 65 0.00 0.00 0 2.9 3.3 - - 2.8 1106 -4.0 1306 0.01 1857 0.03 1718 0.08 1738 0.0 0.0 0.4 1,579 12.5
3/18/21 64.2 1401 37.4 0715 0.00 0.71 13.22 2.5 15.8 1620 0.101 0.67 398 42.9 98 48 0.00 0.00 0 3.2 0.8 - - 4.6 0324 -5.7 1403 - - - - - - 0.0 0.0 7.2 1,578 12.4
3/17/21 57.2 1455 30.9 0727 0.00 0.71 13.22 2.4 17.2 1509 0.098 0.63 440 37.0 99 50 0.00 0.00 0 0.9 0.0 - - 3.2 0202 -4.4 1334 - - - - - - 2.4 0.0 10.1 1,571 12.2
3/16/21 58.0 1519 27.5 0507 0.00 0.71 13.22 1.5 13.5 1601 0.117 0.59 533 34.0 99 42 0.00 0.00 0 1.1 0.0 - - 4.3 1435 -4.4 1356 - - - - - - 7.1 0.2 14.5 1,561 12.3
3/15/21 49.0 1347 30.1 0041 0.04 0.71 13.22 3.5 21.2 1744 0.084 0.55 421 34.6 97 46 0.00 0.00 0 0.0 0.0 - - 3.5 1502 -4.6 1316 0.01 1415 0.02 0120 0.05 0126 2.0 0.0 16.6 1,547 12.4
Max 83.2 - 43.7 - 0.16 0.87 - 3.5 21.2 - 0.202 - 614 49.3 99 65 8.69 0.00 - 12.3 11.4 - - 12.1 - -3.4 - 0.01 - 0.03 - 0.08 - 7.1 0.2 16.6 - 12.5
Avg - - - - - 0.47 - 2.1 - - - - - 37.3 - - 3.06 0.00 - 6.0 3.9 - - - - - - - - - - - - 0.5 0.0 9.3 - -
Min 49.0 - 27.5 - 0.00 0.00 - 1.4 8.1 - 0.057 - 217 27.0 77 8 0.00 0.00 - 0.0 0.0 - - 2.7 - -6.1 - 0.01 - 0.02 - 0.05 - 0.0 0.0 0.4 - 12.2
Total - - - - - - - - - - - - - - - - 91.80 0.00 - 180.3 117.8 - - - - - - - - - - - - 13.7 0.2 280.0 - -